Time;durP1;ratioP1;P1;durP2;ratioP2;P2;SDS_P1;SDS_P2;PMS_P1;PMS_P2;Temp;Humidity;BMP_temperature;BMP_pressure;BME280_temperature;BME280_humidity;BME280_pressure;Samples;Min_cycle;Max_cycle;Signal;HPM_P1;HPM_P2
2022/02/12 00:00:45;;;;;;;14.07;4.03;;;2.50;99.90;;;;;;5074346;28;20060;-75
2022/02/12 00:03:11;;;;;;;5.63;3.17;;;2.60;99.90;;;;;;5082603;28;20032;-73
2022/02/12 00:05:37;;;;;;;14.60;3.72;;;2.50;99.90;;;;;;5084690;28;20041;-77
2022/02/12 00:08:03;;;;;;;14.93;4.10;;;2.60;99.90;;;;;;5084762;28;20059;-75
2022/02/12 00:10:30;;;;;;;12.15;3.83;;;2.60;99.90;;;;;;5084685;28;20035;-75
2022/02/12 00:12:56;;;;;;;17.92;3.75;;;2.60;99.90;;;;;;5084753;28;20071;-74
2022/02/12 00:15:22;;;;;;;22.00;4.50;;;2.60;99.90;;;;;;5085186;28;20036;-74
2022/02/12 00:17:54;;;;;;;7.10;2.53;;;2.60;99.90;;;;;;5086210;28;20032;-75
2022/02/12 00:20:20;;;;;;;7.05;2.65;;;2.60;99.90;;;;;;5089047;28;20107;-74
2022/02/12 00:22:45;;;;;;;7.70;2.75;;;2.60;99.90;;;;;;5088722;28;20049;-74
2022/02/12 00:25:11;;;;;;;8.68;2.25;;;2.60;99.90;;;;;;5088184;28;20035;-75
2022/02/12 00:27:37;;;;;;;7.60;2.97;;;2.60;99.90;;;;;;5088517;28;20025;-74
2022/02/12 00:30:04;;;;;;;13.57;4.05;;;2.60;99.90;;;;;;5087001;28;20028;-74
2022/02/12 00:32:30;;;;;;;10.85;3.72;;;2.60;99.90;;;;;;5069934;28;20029;-74
2022/02/12 00:34:55;;;;;;;11.85;3.03;;;2.50;99.90;;;;;;5068127;28;20487;-77
2022/02/12 00:37:21;;;;;;;8.05;3.13;;;2.50;99.90;;;;;;5068323;28;20032;-74
2022/02/12 00:39:46;;;;;;;6.05;2.28;;;2.60;99.90;;;;;;5068539;28;20073;-74
2022/02/12 00:42:12;;;;;;;8.70;2.72;;;2.50;99.90;;;;;;5049996;28;20067;-72
2022/02/12 00:44:38;;;;;;;8.73;2.50;;;2.50;99.90;;;;;;5068187;28;20029;-74
2022/02/12 00:47:04;;;;;;;9.50;2.88;;;2.50;99.90;;;;;;5068125;28;20021;-72
2022/02/12 00:49:29;;;;;;;15.68;3.17;;;2.50;99.90;;;;;;5068195;28;20024;-74
2022/02/12 00:51:55;;;;;;;4.53;2.55;;;2.50;99.90;;;;;;5067972;28;20029;-74
2022/02/12 00:54:21;;;;;;;12.32;2.92;;;2.50;99.90;;;;;;5049915;28;20045;-73
2022/02/12 00:56:46;;;;;;;7.07;3.17;;;2.50;99.90;;;;;;5084674;28;20025;-72
2022/02/12 00:59:12;;;;;;;3.78;2.58;;;2.60;99.90;;;;;;5086333;28;20021;-72
2022/02/12 01:01:38;;;;;;;5.53;2.45;;;2.50;99.90;;;;;;5067701;28;20047;-73
2022/02/12 01:04:04;;;;;;;10.88;3.25;;;2.60;99.90;;;;;;5049922;28;20096;-74
2022/02/12 01:06:30;;;;;;;18.40;2.78;;;2.60;99.90;;;;;;5049940;28;20029;-72
2022/02/12 01:08:56;;;;;;;9.25;2.55;;;2.60;99.90;;;;;;5067719;28;20511;-74
2022/02/12 01:11:22;;;;;;;4.38;2.42;;;2.60;99.90;;;;;;5049785;28;20045;-73
2022/02/12 01:13:49;;;;;;;7.43;2.63;;;2.70;99.90;;;;;;5067745;28;20033;-72
2022/02/12 01:16:14;;;;;;;10.20;2.88;;;2.70;99.90;;;;;;5049624;28;20040;-74
2022/02/12 01:18:40;;;;;;;4.45;1.80;;;2.70;99.90;;;;;;5067650;28;20028;-72
2022/02/12 01:21:06;;;;;;;6.80;2.50;;;2.70;99.90;;;;;;5067565;28;20025;-72
2022/02/12 01:23:35;;;;;;;9.93;2.60;;;2.70;99.90;;;;;;5067420;28;20170;-74
2022/02/12 01:26:02;;;;;;;12.85;3.35;;;2.70;99.90;;;;;;5049582;28;20029;-72
2022/02/12 01:28:27;;;;;;;5.82;2.88;;;2.60;99.90;;;;;;5066712;28;20029;-75
2022/02/12 01:30:53;;;;;;;7.85;2.45;;;2.60;99.90;;;;;;5067410;28;20056;-73
2022/02/12 01:33:19;;;;;;;4.63;1.98;;;2.60;99.90;;;;;;5067434;28;20025;-73
2022/02/12 01:35:45;;;;;;;8.70;2.38;;;2.60;99.90;;;;;;5049260;28;20057;-72
2022/02/12 01:38:10;;;;;;;8.18;2.45;;;2.60;99.90;;;;;;5067312;28;20079;-74
2022/02/12 01:40:36;;;;;;;6.80;2.05;;;2.70;99.90;;;;;;5067153;28;20051;-73
2022/02/12 01:43:02;;;;;;;8.57;3.33;;;2.70;99.90;;;;;;5048899;28;20032;-74
2022/02/12 01:45:31;;;;;;;4.70;1.75;;;2.80;99.90;;;;;;5059209;28;20059;-74
2022/02/12 01:47:58;;;;;;;4.82;2.30;;;2.70;99.90;;;;;;5070798;28;20096;-72
2022/02/12 01:50:24;;;;;;;4.45;2.38;;;2.70;99.90;;;;;;5066983;28;20055;-72
2022/02/12 01:52:51;;;;;;;4.75;1.95;;;2.60;99.90;;;;;;5066842;28;20036;-74
2022/02/12 01:55:22;;;;;;;7.85;1.85;;;2.60;99.90;;;;;;5066918;28;20045;-74
2022/02/12 01:57:49;;;;;;;6.57;2.50;;;2.50;99.90;;;;;;5066890;28;20051;-74
2022/02/12 02:00:17;;;;;;;3.08;1.58;;;2.50;99.90;;;;;;5066852;28;20033;-74
2022/02/12 02:02:43;;;;;;;3.38;1.85;;;2.50;99.90;;;;;;5066734;28;20040;-73
2022/02/12 02:05:13;;;;;;;3.67;1.60;;;2.40;99.90;;;;;;5066624;28;20393;-73
2022/02/12 02:07:40;;;;;;;14.93;3.53;;;2.40;99.90;;;;;;5066555;28;20029;-74
2022/02/12 02:10:06;;;;;;;12.93;2.72;;;2.30;99.90;;;;;;5066702;28;20021;-73
2022/02/12 02:12:32;;;;;;;7.10;2.78;;;2.30;99.90;;;;;;5065158;28;20021;-73
2022/02/12 02:14:58;;;;;;;4.68;2.47;;;2.30;99.90;;;;;;5066516;28;20080;-74
2022/02/12 02:17:24;;;;;;;5.93;1.95;;;2.30;99.90;;;;;;5066452;28;20055;-73
2022/02/12 02:19:50;;;;;;;14.45;2.72;;;2.20;99.90;;;;;;5066489;28;20033;-75
2022/02/12 02:22:20;;;;;;;14.23;1.95;;;2.20;99.90;;;;;;5066572;28;20041;-73
2022/02/12 02:24:46;;;;;;;3.38;2.03;;;2.10;99.90;;;;;;5072955;28;20024;-75
2022/02/12 02:27:14;;;;;;;10.45;2.88;;;2.00;99.90;;;;;;5086276;28;20032;-74
2022/02/12 02:29:41;;;;;;;7.85;2.35;;;2.00;99.90;;;;;;5086342;28;20028;-73
2022/02/12 02:32:08;;;;;;;8.88;3.05;;;1.90;99.90;;;;;;5084851;28;20036;-74
2022/02/12 02:34:35;;;;;;;14.30;2.80;;;1.80;99.90;;;;;;5086033;28;20029;-74
2022/02/12 02:37:01;;;;;;;4.22;2.25;;;1.80;99.90;;;;;;5085945;28;20052;-73
2022/02/12 02:39:27;;;;;;;6.55;2.88;;;1.80;99.90;;;;;;5085665;28;20024;-74
2022/02/12 02:41:53;;;;;;;12.25;3.03;;;1.70;99.90;;;;;;5085716;28;20048;-73
2022/02/12 02:44:21;;;;;;;6.65;2.63;;;1.70;99.90;;;;;;5086048;28;20020;-75
2022/02/12 02:46:47;;;;;;;7.05;2.35;;;1.70;99.90;;;;;;5084448;28;20095;-73
2022/02/12 02:49:12;;;;;;;5.82;2.83;;;1.80;99.90;;;;;;5047809;28;20029;-72
2022/02/12 02:57:07;;;;;;;6.30;2.97;;;1.80;99.90;;;;;;5065720;28;20441;-74
2022/02/12 02:59:33;;;;;;;6.80;2.53;;;1.90;99.90;;;;;;5047465;28;20029;-73
2022/02/12 03:01:58;;;;;;;9.63;2.55;;;1.90;99.90;;;;;;5047528;28;20040;-74
2022/02/12 03:04:25;;;;;;;8.98;2.13;;;1.90;99.90;;;;;;5047510;28;20152;-74
2022/02/12 03:06:52;;;;;;;10.68;3.40;;;1.90;99.90;;;;;;5065476;28;20052;-75
2022/02/12 03:09:18;;;;;;;6.50;2.65;;;1.90;99.90;;;;;;5065494;28;20080;-73
2022/02/12 03:11:45;;;;;;;5.07;3.03;;;1.80;99.90;;;;;;5065459;28;20485;-75
2022/02/12 03:14:10;;;;;;;5.35;2.60;;;1.80;99.90;;;;;;5065228;28;20042;-74
2022/02/12 03:16:36;;;;;;;5.43;2.50;;;1.80;99.90;;;;;;5047270;28;20097;-73
2022/02/12 03:19:03;;;;;;;13.43;2.47;;;1.80;99.90;;;;;;5047351;28;20029;-74
2022/02/12 03:21:29;;;;;;;7.05;2.67;;;1.80;99.90;;;;;;5047313;28;20028;-74
2022/02/12 03:23:55;;;;;;;24.20;2.50;;;1.80;99.90;;;;;;5065185;28;20094;-74
2022/02/12 03:26:23;;;;;;;9.50;2.75;;;1.80;99.90;;;;;;5065423;28;20032;-76
2022/02/12 03:28:48;;;;;;;9.52;3.03;;;1.70;99.90;;;;;;5047281;28;20465;-74
2022/02/12 03:31:14;;;;;;;9.25;3.22;;;1.70;99.90;;;;;;5064994;28;20044;-75
2022/02/12 03:33:40;;;;;;;8.23;2.92;;;1.60;99.90;;;;;;5065202;28;20465;-75
2022/02/12 03:36:05;;;;;;;17.85;3.17;;;1.60;99.90;;;;;;5065067;28;20032;-75
2022/02/12 03:38:33;;;;;;;14.20;3.20;;;1.60;99.90;;;;;;5074541;28;20521;-74
2022/02/12 03:41:01;;;;;;;8.35;3.33;;;1.50;99.90;;;;;;5076777;28;20053;-76
2022/02/12 03:43:28;;;;;;;14.50;2.88;;;1.50;99.90;;;;;;5067004;28;20083;-74
2022/02/12 03:45:57;;;;;;;3.70;2.22;;;1.50;99.90;;;;;;5084981;28;20461;-76
2022/02/12 03:48:24;;;;;;;10.95;3.00;;;1.50;99.90;;;;;;5084876;28;20052;-73
2022/02/12 03:50:54;;;;;;;15.43;3.13;;;1.50;99.90;;;;;;5083598;28;20024;-74
2022/02/12 03:53:21;;;;;;;4.72;2.83;;;1.40;99.90;;;;;;5084880;28;20032;-75
2022/02/12 03:55:48;;;;;;;3.88;2.33;;;1.40;99.90;;;;;;5084977;28;20045;-73
2022/02/12 03:58:17;;;;;;;5.22;2.88;;;1.30;99.90;;;;;;5066742;28;20051;-74
2022/02/12 04:00:45;;;;;;;4.55;2.03;;;1.30;99.90;;;;;;5084883;28;20407;-77
2022/02/12 04:03:11;;;;;;;10.38;3.47;;;1.30;99.90;;;;;;5084735;28;20032;-74
2022/02/12 04:05:38;;;;;;;6.30;2.95;;;1.20;99.90;;;;;;5084678;28;20049;-76
2022/02/12 04:08:04;;;;;;;4.38;1.48;;;1.20;99.90;;;;;;5084717;28;20392;-75
2022/02/12 04:10:30;;;;;;;2.83;1.80;;;1.20;99.90;;;;;;5084770;28;20025;-74
2022/02/12 04:12:56;;;;;;;4.85;1.60;;;1.20;99.90;;;;;;5065066;28;20074;-76
2022/02/12 04:15:25;;;;;;;10.65;2.08;;;1.10;99.90;;;;;;5071568;28;20055;-75
2022/02/12 04:17:51;;;;;;;11.48;2.58;;;1.10;99.90;;;;;;5064806;28;20039;-76
2022/02/12 04:20:22;;;;;;;5.90;2.10;;;1.10;99.90;;;;;;5064732;28;20036;-74
2022/02/12 04:22:52;;;;;;;5.95;2.00;;;1.10;99.90;;;;;;5064445;28;20459;-76
2022/02/12 04:25:20;;;;;;;6.85;2.40;;;1.10;99.90;;;;;;5046888;28;20515;-74
2022/02/12 04:27:46;;;;;;;9.63;2.45;;;1.10;99.90;;;;;;5046782;28;20374;-74
2022/02/12 04:30:13;;;;;;;6.15;2.33;;;1.10;99.90;;;;;;5046347;28;20465;-74
2022/02/12 04:32:40;;;;;;;13.95;2.28;;;1.00;99.90;;;;;;5064542;28;20033;-75
2022/02/12 04:35:07;;;;;;;8.20;2.40;;;1.00;99.90;;;;;;5046674;28;20033;-75
2022/02/12 04:37:34;;;;;;;7.90;3.28;;;1.00;99.90;;;;;;5046402;28;20025;-74
2022/02/12 04:39:59;;;;;;;15.15;2.72;;;0.90;99.90;;;;;;5064250;28;20028;-74
2022/02/12 04:42:25;;;;;;;3.00;2.30;;;0.90;99.90;;;;;;5062925;28;20131;-75
2022/02/12 04:44:52;;;;;;;5.00;2.15;;;0.90;99.90;;;;;;5046676;28;20064;-75
2022/02/12 04:47:20;;;;;;;5.80;2.72;;;0.90;99.90;;;;;;5046651;28;20048;-75
2022/02/12 04:49:49;;;;;;;5.30;1.67;;;0.90;99.90;;;;;;5064568;28;20017;-74
2022/02/12 04:52:19;;;;;;;10.10;2.60;;;0.90;99.90;;;;;;5046321;28;20099;-74
2022/02/12 04:54:45;;;;;;;8.15;2.25;;;0.90;99.90;;;;;;5064328;28;20497;-74
2022/02/12 04:57:15;;;;;;;7.60;2.92;;;0.80;99.90;;;;;;5064195;28;20643;-75
2022/02/12 04:59:40;;;;;;;6.63;2.85;;;0.80;99.90;;;;;;5064218;28;20116;-73
2022/02/12 05:02:06;;;;;;;9.68;2.50;;;0.80;99.90;;;;;;5046061;28;20110;-75
2022/02/12 05:04:33;;;;;;;10.45;3.15;;;0.80;99.90;;;;;;5066700;28;20376;-75
2022/02/12 05:06:59;;;;;;;7.38;2.28;;;0.80;99.90;;;;;;5049666;28;20027;-74
2022/02/12 05:09:26;;;;;;;4.57;1.75;;;0.70;99.90;;;;;;5067859;28;20029;-75
2022/02/12 05:11:52;;;;;;;5.15;2.58;;;0.70;99.90;;;;;;5067880;28;20025;-76
2022/02/12 05:14:18;;;;;;;9.10;2.75;;;0.70;99.90;;;;;;5067672;28;20040;-74
2022/02/12 05:16:44;;;;;;;7.25;2.92;;;0.70;99.90;;;;;;5067641;28;20029;-74
2022/02/12 05:19:10;;;;;;;9.93;2.58;;;0.70;99.90;;;;;;5049369;28;20071;-74
2022/02/12 05:21:36;;;;;;;19.50;2.50;;;0.70;99.90;;;;;;5067566;28;20484;-76
2022/02/12 05:24:02;;;;;;;3.53;1.30;;;0.70;99.90;;;;;;5049380;28;20458;-74
2022/02/12 05:26:28;;;;;;;8.55;2.80;;;0.70;99.90;;;;;;5067623;28;20029;-74
2022/02/12 05:28:54;;;;;;;5.75;2.33;;;0.60;99.90;;;;;;5049465;28;20493;-75
2022/02/12 05:31:21;;;;;;;1.48;1.23;;;0.60;99.90;;;;;;5067409;28;20041;-74
2022/02/12 05:33:47;;;;;;;4.65;1.63;;;0.60;99.90;;;;;;5067551;28;20117;-76
2022/02/12 05:36:14;;;;;;;6.03;1.50;;;0.60;99.90;;;;;;5067265;28;20029;-74
2022/02/12 05:38:40;;;;;;;5.30;2.10;;;0.50;99.90;;;;;;5067157;28;20017;-75
2022/02/12 05:41:07;;;;;;;10.85;2.00;;;0.50;99.90;;;;;;5067141;28;20032;-75
2022/02/12 05:43:33;;;;;;;4.60;2.30;;;0.50;99.90;;;;;;5067042;28;20044;-77
2022/02/12 05:45:59;;;;;;;2.60;1.60;;;0.40;99.90;;;;;;5067217;28;20459;-75
2022/02/12 05:48:25;;;;;;;24.58;2.17;;;0.40;99.90;;;;;;5067037;28;20470;-73
2022/02/12 05:50:52;;;;;;;13.60;3.13;;;0.40;99.90;;;;;;5066974;28;20020;-75
2022/02/12 05:53:17;;;;;;;12.98;2.35;;;0.40;99.90;;;;;;5065894;28;20024;-75
2022/02/12 05:55:43;;;;;;;5.22;2.08;;;0.40;99.90;;;;;;5062083;28;20490;-77
2022/02/12 05:58:09;;;;;;;4.03;1.50;;;0.40;99.90;;;;;;5046629;28;20029;-74
2022/02/12 06:00:34;;;;;;;3.60;1.52;;;0.30;99.90;;;;;;5046829;28;20026;-74
2022/02/12 06:03:02;;;;;;;6.38;2.40;;;0.40;99.90;;;;;;5046593;28;20052;-74
2022/02/12 06:05:28;;;;;;;18.88;3.63;;;0.30;99.90;;;;;;5062580;28;20079;-75
2022/02/12 06:07:56;;;;;;;5.05;2.22;;;0.30;99.90;;;;;;5073605;28;20030;-74
2022/02/12 06:10:22;;;;;;;7.53;1.38;;;0.30;99.90;;;;;;5050852;28;20067;-75
2022/02/12 06:12:49;;;;;;;4.97;1.27;;;0.30;99.90;;;;;;5046661;28;20036;-76
2022/02/12 06:15:14;;;;;;;6.07;2.15;;;0.20;99.90;;;;;;5046319;28;20497;-74
2022/02/12 06:17:40;;;;;;;6.15;2.28;;;0.20;99.90;;;;;;5046462;28;20033;-74
2022/02/12 06:20:07;;;;;;;4.05;2.25;;;0.20;99.90;;;;;;5046392;28;20025;-75
2022/02/12 06:22:33;;;;;;;4.53;1.88;;;0.20;99.90;;;;;;5046203;28;20045;-75
2022/02/12 06:24:58;;;;;;;9.18;1.80;;;0.20;99.90;;;;;;5052515;28;20028;-76
2022/02/12 06:27:25;;;;;;;4.15;2.17;;;0.10;99.90;;;;;;5052320;28;20033;-75
2022/02/12 06:29:52;;;;;;;9.25;2.45;;;0.10;99.90;;;;;;5050373;28;20429;-75
2022/02/12 06:32:21;;;;;;;4.63;2.15;;;0.10;99.90;;;;;;5058775;28;20029;-77
2022/02/12 06:34:46;;;;;;;12.15;2.70;;;0.10;99.90;;;;;;5062802;28;20029;-74
2022/02/12 06:37:12;;;;;;;6.50;2.58;;;0.10;99.90;;;;;;5079737;28;20032;-73
2022/02/12 06:39:38;;;;;;;10.98;2.15;;;0.00;99.90;;;;;;5074519;28;20037;-74
2022/02/12 06:42:04;;;;;;;11.73;3.33;;;0.00;99.90;;;;;;5061642;28;20047;-73
2022/02/12 06:44:30;;;;;;;8.75;2.67;;;0.00;99.90;;;;;;5064339;28;20103;-74
2022/02/12 06:46:56;;;;;;;8.13;2.05;;;0.00;99.90;;;;;;5065470;28;20026;-73
2022/02/12 06:49:22;;;;;;;5.25;2.75;;;0.00;99.90;;;;;;5047330;28;20029;-74
2022/02/12 06:51:47;;;;;;;2.13;1.60;;;0.00;99.90;;;;;;5045307;28;20040;-74
2022/02/12 06:54:13;;;;;;;5.72;2.92;;;0.00;99.90;;;;;;5060778;28;20052;-74
2022/02/12 06:56:39;;;;;;;8.73;2.15;;;0.00;99.90;;;;;;5045982;28;20033;-74
2022/02/12 06:59:04;;;;;;;8.48;3.05;;;0.00;99.90;;;;;;5045300;28;20482;-74
2022/02/12 07:01:30;;;;;;;4.45;2.00;;;0.00;99.90;;;;;;5056818;28;20029;-73
2022/02/12 07:03:56;;;;;;;5.45;2.08;;;0.00;99.90;;;;;;5064760;28;20045;-76
2022/02/12 07:06:24;;;;;;;8.65;3.58;;;0.00;99.90;;;;;;5064184;28;20063;-74
2022/02/12 07:08:56;;;;;;;6.32;2.60;;;0.00;99.90;;;;;;5065552;28;20477;-75
2022/02/12 07:11:22;;;;;;;3.80;2.90;;;0.00;99.90;;;;;;5065152;28;20041;-76
2022/02/12 07:13:48;;;;;;;4.65;2.60;;;0.00;99.90;;;;;;5064598;28;20084;-74
2022/02/12 07:16:13;;;;;;;34.75;3.85;;;0.10;99.90;;;;;;5056741;28;20492;-74
2022/02/12 07:18:39;;;;;;;3.63;2.35;;;0.10;99.90;;;;;;5054198;28;20025;-74
2022/02/12 07:21:06;;;;;;;9.05;3.30;;;0.20;99.90;;;;;;5058534;28;20063;-73
2022/02/12 07:23:32;;;;;;;5.78;3.28;;;0.20;99.90;;;;;;5056600;28;20042;-75
2022/02/12 07:25:57;;;;;;;6.50;2.63;;;0.20;99.90;;;;;;5061946;28;20057;-74
2022/02/12 07:28:27;;;;;;;10.77;3.85;;;0.20;99.90;;;;;;5049039;28;20029;-77
2022/02/12 07:30:55;;;;;;;6.05;2.25;;;0.40;99.90;;;;;;5046604;28;20488;-75
2022/02/12 07:33:21;;;;;;;12.30;1.92;;;0.50;99.90;;;;;;5045140;28;20034;-76
2022/02/12 07:35:49;;;;;;;4.40;2.22;;;0.60;99.90;;;;;;5044103;28;20474;-74
2022/02/12 07:38:15;;;;;;;12.43;3.55;;;0.70;99.90;;;;;;5044431;28;20041;-75
2022/02/12 07:40:41;;;;;;;6.65;3.55;;;0.70;99.90;;;;;;5052136;28;20070;-73
2022/02/12 07:43:06;;;;;;;11.93;2.75;;;0.90;99.90;;;;;;5049511;28;20033;-74
2022/02/12 07:45:35;;;;;;;3.95;1.73;;;1.00;99.90;;;;;;5045144;28;20060;-74
2022/02/12 07:48:01;;;;;;;3.92;2.03;;;1.20;99.90;;;;;;5044983;28;20022;-73
2022/02/12 07:50:27;;;;;;;7.47;2.70;;;1.30;99.90;;;;;;5044549;28;20049;-75
2022/02/12 07:52:53;;;;;;;6.18;3.15;;;1.50;99.90;;;;;;5043255;28;20106;-74
2022/02/12 07:55:20;;;;;;;19.90;6.75;;;1.60;99.90;;;;;;5069565;28;20108;-75
2022/02/12 07:57:46;;;;;;;15.02;4.20;;;1.70;99.90;;;;;;5084380;28;20033;-75
2022/02/12 08:00:13;;;;;;;7.60;3.17;;;1.80;99.90;;;;;;5078460;28;20025;-73
2022/02/12 08:02:40;;;;;;;16.33;5.50;;;2.00;99.90;;;;;;5073757;28;20053;-75
2022/02/12 08:05:06;;;;;;;11.23;3.50;;;2.10;99.90;;;;;;5064633;28;20028;-74
2022/02/12 08:07:34;;;;;;;4.95;2.65;;;2.30;99.90;;;;;;5070427;28;20056;-74
2022/02/12 08:11:22;;;;;;;15.32;7.47;;;2.50;99.90;;;;;;5076765;28;20033;-73
2022/02/12 08:12:53;;;;;;;11.20;4.07;;;2.70;99.90;;;;;;5078030;28;20037;-77
2022/02/12 08:15:19;;;;;;;17.85;3.80;;;2.90;99.90;;;;;;5064469;28;20096;-76
2022/02/12 08:17:45;;;;;;;11.68;2.53;;;3.10;99.90;;;;;;5046082;28;20037;-74
2022/02/12 08:20:11;;;;;;;3.10;1.67;;;3.30;99.90;;;;;;5071409;28;20101;-74
2022/02/12 08:22:37;;;;;;;5.20;2.45;;;3.50;99.90;;;;;;5055588;28;20025;-75
2022/02/12 08:25:04;;;;;;;6.95;2.20;;;3.50;99.90;;;;;;5064484;28;20033;-75
2022/02/12 08:27:29;;;;;;;2.78;1.77;;;3.60;99.90;;;;;;5077911;28;20026;-73
2022/02/12 08:29:55;;;;;;;5.57;2.03;;;3.60;99.90;;;;;;5084611;28;20024;-74
2022/02/12 08:32:23;;;;;;;4.32;1.92;;;3.90;99.90;;;;;;5079561;28;20029;-75
2022/02/12 08:34:50;;;;;;;3.35;1.98;;;3.90;99.90;;;;;;5076246;28;20066;-75
2022/02/12 08:37:16;;;;;;;3.42;1.80;;;4.10;99.90;;;;;;5074174;28;20037;-73
2022/02/12 08:39:41;;;;;;;9.82;2.22;;;4.20;99.90;;;;;;5048146;28;20040;-75
2022/02/12 08:42:07;;;;;;;6.40;2.80;;;4.50;99.90;;;;;;5052017;28;20033;-75
2022/02/12 08:44:34;;;;;;;4.43;1.83;;;4.60;99.90;;;;;;5075878;28;20036;-74
2022/02/12 08:46:59;;;;;;;7.05;1.85;;;4.80;99.90;;;;;;5079889;28;20021;-75
2022/02/12 08:49:25;;;;;;;6.38;2.60;;;5.00;99.90;;;;;;5086198;28;20542;-74
2022/02/12 08:51:51;;;;;;;4.18;2.25;;;5.10;99.90;;;;;;5079610;28;20021;-73
2022/02/12 08:54:19;;;;;;;12.30;2.17;;;5.20;99.90;;;;;;5072972;28;20076;-74
2022/02/12 08:56:45;;;;;;;3.88;1.70;;;5.20;99.90;;;;;;5068146;28;20024;-74
2022/02/12 08:59:12;;;;;;;7.78;2.13;;;5.30;99.90;;;;;;5083711;28;20029;-75
2022/02/12 09:01:40;;;;;;;16.52;3.17;;;5.20;99.90;;;;;;5080305;28;20025;-76
2022/02/12 09:04:07;;;;;;;7.15;2.17;;;5.30;99.90;;;;;;5083653;28;20029;-74
2022/02/12 09:06:33;;;;;;;6.05;2.45;;;5.30;99.90;;;;;;5076983;28;20039;-74
2022/02/12 09:09:01;;;;;;;6.82;1.80;;;5.30;99.90;;;;;;5086472;28;20093;-74
2022/02/12 09:11:26;;;;;;;6.25;2.40;;;5.30;99.90;;;;;;5068352;28;20025;-76
2022/02/12 09:13:53;;;;;;;3.78;2.00;;;5.30;99.90;;;;;;5069382;28;20116;-75
2022/02/12 09:16:21;;;;;;;3.75;1.92;;;5.30;99.90;;;;;;5067726;28;20020;-77
2022/02/12 09:18:48;;;;;;;5.78;2.45;;;5.20;99.90;;;;;;5072289;28;20048;-74
2022/02/12 09:21:15;;;;;;;5.22;1.83;;;5.30;99.90;;;;;;5076108;28;20024;-75
2022/02/12 09:23:41;;;;;;;5.93;1.55;;;5.40;99.90;;;;;;5065222;28;20025;-77
2022/02/12 09:26:07;;;;;;;12.48;2.47;;;5.40;99.90;;;;;;5070962;28;20056;-75
2022/02/12 09:28:33;;;;;;;8.27;2.15;;;5.30;99.90;;;;;;5067382;28;20055;-74
2022/02/12 09:30:58;;;;;;;4.13;2.00;;;5.30;99.90;;;;;;5066091;28;20086;-75
2022/02/12 09:33:24;;;;;;;7.63;1.73;;;5.30;99.90;;;;;;5067282;28;20040;-75
2022/02/12 09:35:56;;;;;;;7.07;2.88;;;5.30;99.90;;;;;;5073411;28;20037;-75
2022/02/12 09:38:26;;;;;;;8.23;2.55;;;5.40;99.90;;;;;;5081092;28;20031;-74
2022/02/12 09:40:53;;;;;;;6.03;2.00;;;5.40;99.90;;;;;;5087371;28;20025;-74
2022/02/12 09:43:25;;;;;;;8.75;2.15;;;5.40;99.90;;;;;;5086190;28;20039;-74
2022/02/12 09:46:04;;;;;;;3.08;1.60;;;5.30;99.90;;;;;;5077531;28;20555;-76
2022/02/12 09:48:34;;;;;;;3.17;1.67;;;5.40;99.90;;;;;;5070362;28;20033;-75
2022/02/12 09:51:00;;;;;;;8.93;2.08;;;5.20;99.90;;;;;;5076971;28;20020;-73
2022/02/12 09:53:28;;;;;;;3.40;1.70;;;5.20;99.90;;;;;;5086252;28;20028;-76
2022/02/12 09:55:56;;;;;;;11.60;2.30;;;5.20;99.90;;;;;;5068606;28;20479;-74
2022/02/12 09:58:22;;;;;;;3.28;2.08;;;5.30;99.90;;;;;;5084721;28;20044;-75
2022/02/12 10:00:48;;;;;;;6.43;2.10;;;5.30;99.90;;;;;;5077593;28;20039;-75
2022/02/12 10:03:14;;;;;;;22.88;3.47;;;5.40;99.90;;;;;;5067819;28;20540;-74
2022/02/12 10:05:50;;;;;;;6.03;1.77;;;5.60;99.90;;;;;;5067188;28;20032;-74
2022/02/12 10:08:17;;;;;;;2.92;1.80;;;5.90;99.90;;;;;;5086356;28;20460;-74
2022/02/12 10:10:48;;;;;;;12.32;2.67;;;6.20;99.90;;;;;;5051949;28;20031;-74
2022/02/12 10:13:22;;;;;;;8.10;3.28;;;6.30;99.90;;;;;;5048651;28;20437;-74
2022/02/12 10:15:57;;;;;;;5.15;2.67;;;6.40;99.90;;;;;;5066630;28;20052;-75
2022/02/12 10:18:31;;;;;;;6.85;2.05;;;6.60;99.90;;;;;;5067509;28;20171;-74
2022/02/12 10:20:58;;;;;;;11.90;2.97;;;6.70;99.90;;;;;;5096906;28;20092;-75
2022/02/12 10:23:29;;;;;;;6.97;2.20;;;7.00;99.90;;;;;;5068015;28;20120;-77
2022/02/12 10:26:14;;;;;;;4.65;2.13;;;7.30;99.90;;;;;;5081710;28;20028;-75
2022/02/12 10:28:45;;;;;;;6.57;2.67;;;7.60;99.90;;;;;;5048172;28;20048;-75
2022/02/12 10:31:12;;;;;;;9.20;2.92;;;7.80;99.90;;;;;;5047509;28;20036;-75
2022/02/12 10:33:45;;;;;;;8.85;2.17;;;7.80;99.90;;;;;;5087802;28;20036;-75
2022/02/12 10:36:16;;;;;;;5.05;2.17;;;7.90;99.90;;;;;;5106114;28;20024;-76
2022/02/12 10:38:53;;;;;;;4.50;2.42;;;8.00;99.90;;;;;;5106244;28;20048;-74
2022/02/12 10:41:26;;;;;;;11.20;2.58;;;8.10;99.90;;;;;;5067347;28;20174;-75
2022/02/12 10:43:56;;;;;;;3.30;1.73;;;8.20;99.90;;;;;;5061007;28;20420;-74
2022/02/12 10:46:22;;;;;;;3.05;1.33;;;8.50;99.90;;;;;;5063790;28;20033;-73
2022/02/12 10:48:50;;;;;;;6.13;1.85;;;8.80;99.90;;;;;;5066238;28;20025;-75
2022/02/12 10:51:16;;;;;;;19.38;2.22;;;8.90;99.90;;;;;;5066108;28;20489;-74
2022/02/12 10:54:09;;;;;;;7.18;2.92;;;9.00;99.90;;;;;;5065388;28;20041;-74
2022/02/12 10:56:50;;;;;;;3.92;1.92;;;9.20;99.90;;;;;;5065810;28;20097;-73
2022/02/12 10:59:20;;;;;;;4.53;2.17;;;9.40;99.90;;;;;;5065526;28;20027;-73
2022/02/12 11:01:46;;;;;;;7.15;2.28;;;9.30;99.90;;;;;;5065576;28;20040;-74
2022/02/12 11:04:15;;;;;;;3.47;2.10;;;9.30;99.90;;;;;;5074894;28;20072;-74
2022/02/12 11:06:45;;;;;;;7.00;2.25;;;9.30;99.90;;;;;;5071118;28;20025;-75
2022/02/12 11:09:11;;;;;;;5.82;2.45;;;9.30;99.90;;;;;;5065602;28;20033;-74
2022/02/12 11:11:38;;;;;;;14.82;1.77;;;9.50;99.90;;;;;;5065230;28;20029;-74
2022/02/12 11:14:07;;;;;;;6.47;2.58;;;9.70;99.90;;;;;;5064686;28;20045;-73
2022/02/12 11:16:36;;;;;;;2.90;1.42;;;10.00;99.90;;;;;;5065274;28;20039;-74
2022/02/12 11:19:03;;;;;;;3.80;1.88;;;10.30;99.90;;;;;;5080140;28;20021;-73
2022/02/12 11:21:37;;;;;;;4.22;1.60;;;10.40;99.90;;;;;;5066910;28;20021;-74
2022/02/12 11:24:04;;;;;;;5.33;2.43;;;10.60;99.90;;;;;;5085465;28;20024;-75
2022/02/12 11:26:45;;;;;;;6.32;1.95;;;10.90;99.90;;;;;;5080176;28;20036;-73
2022/02/12 11:29:31;;;;;;;4.22;1.92;;;11.10;99.90;;;;;;5064878;28;20029;-73
2022/02/12 11:32:14;;;;;;;9.73;2.45;;;11.10;99.90;;;;;;5064977;28;20112;-74
2022/02/12 11:35:10;;;;;;;9.82;2.03;;;11.20;99.90;;;;;;5064645;28;20021;-74
2022/02/12 11:37:40;;;;;;;3.10;1.70;;;11.10;99.90;;;;;;5058039;28;20037;-75
2022/02/12 11:40:15;;;;;;;11.80;1.70;;;11.10;99.90;;;;;;5082008;28;20033;-77
2022/02/12 11:42:51;;;;;;;6.20;1.90;;;11.10;99.90;;;;;;5083975;28;20060;-72
2022/02/12 11:45:41;;;;;;;7.50;1.77;;;11.10;99.90;;;;;;5067360;28;20094;-76
2022/02/12 11:48:18;;;;;;;3.20;1.33;;;11.00;99.90;;;;;;5084642;28;20107;-76
2022/02/12 11:51:07;;;;;;;4.32;1.65;;;11.00;99.90;;;;;;5066496;28;20854;-76
2022/02/12 11:53:49;;;;;;;1.65;1.23;;;11.10;99.90;;;;;;5084985;28;20063;-76
2022/02/12 11:56:17;;;;;;;18.80;1.45;;;11.10;99.90;;;;;;5037721;28;20101;-75
2022/02/12 11:58:44;;;;;;;3.72;1.48;;;11.10;99.90;;;;;;5040226;28;20557;-75
2022/02/12 12:01:23;;;;;;;4.65;1.30;;;11.10;99.90;;;;;;5039832;28;20547;-77
2022/02/12 12:04:51;;;;;;;12.68;1.83;;;11.30;99.90;;;;;;5043525;28;20036;-76
2022/02/12 12:07:19;;;;;;;3.28;1.77;;;11.20;99.90;;;;;;5041586;28;20046;-76
2022/02/12 12:09:54;;;;;;;1.23;0.93;;;11.00;99.90;;;;;;5044593;28;20036;-79
2022/02/12 12:12:23;;;;;;;2.80;1.27;;;11.00;99.90;;;;;;5045621;28;20030;-77
2022/02/12 12:14:51;;;;;;;2.83;1.30;;;11.00;99.90;;;;;;5049132;28;20093;-74
2022/02/12 12:17:17;;;;;;;3.63;1.50;;;11.00;99.90;;;;;;5039324;28;21144;-75
2022/02/12 12:19:51;;;;;;;1.83;1.42;;;11.20;99.90;;;;;;5040207;28;20036;-78
2022/02/12 12:22:19;;;;;;;5.18;1.42;;;11.30;99.90;;;;;;5033819;28;20018;-77
2022/02/12 12:24:45;;;;;;;5.15;2.00;;;11.40;99.90;;;;;;5028702;28;20018;-76
2022/02/12 12:27:15;;;;;;;6.63;2.20;;;11.40;99.90;;;;;;5034164;28;20038;-74
2022/02/12 12:32:30;;;;;;;4.07;1.40;;;11.50;99.90;;;;;;5028476;28;20121;-74
2022/02/12 12:35:07;;;;;;;3.60;1.67;;;11.70;99.90;;;;;;5027478;28;20025;-78
2022/02/12 12:37:55;;;;;;;7.05;1.58;;;11.60;99.90;;;;;;5028542;28;20033;-73
2022/02/12 12:40:32;;;;;;;6.10;1.67;;;11.70;99.90;;;;;;5041517;28;20036;-74
2022/02/12 12:43:08;;;;;;;4.70;1.50;;;11.60;99.90;;;;;;5047578;28;20032;-75
2022/02/12 12:45:40;;;;;;;8.40;1.85;;;11.40;99.90;;;;;;5046714;28;20091;-76
2022/02/12 12:48:06;;;;;;;4.93;1.30;;;11.40;99.90;;;;;;5063252;28;20093;-75
2022/02/12 12:50:36;;;;;;;3.45;1.85;;;11.40;99.90;;;;;;5047471;28;20048;-78
2022/02/12 12:53:08;;;;;;;4.65;1.40;;;11.50;99.90;;;;;;5047739;28;20037;-75
2022/02/12 12:55:40;;;;;;;6.43;1.13;;;11.70;99.90;;;;;;5078706;28;20052;-76
2022/02/12 12:58:15;;;;;;;10.88;1.77;;;11.80;99.90;;;;;;5087929;28;20028;-77
2022/02/12 13:00:40;;;;;;;3.33;1.63;;;12.10;99.90;;;;;;5086211;28;20020;-75
2022/02/12 13:03:06;;;;;;;3.28;1.55;;;12.10;99.90;;;;;;5086775;28;20104;-78
2022/02/12 13:05:33;;;;;;;3.33;1.60;;;11.90;99.90;;;;;;5086112;28;20035;-76